Tashkent, Uzbekistan
Current Conditions -  °F | °C
As of 1:00 AM on Monday 22 Dec 2014 (Local Time) from UTTT Reporting Station
Clear Clear  
Wind Chill: 36°   Ceiling: Unl
Heat Index: 41°   Visibility: 6mi
Dew Point: 30°   Wind: 8mph
Humidity: 65%   Direction: 50°NE
Pressure: 30"   Gusts: NA
Location:  41.31°N, 69.3°E
Report Text: UTTT 212000Z 05007KT CAVOK 05/M01 Q1016 R88/CLRD70 NOSIG
Loading
Personal Weather Stations






























Interactive Weather Map New forecast layout! Learn more

10-Day Weather Forecast

Advertisements
Track Severe Weather on mobile